CYSZ weather

Ste Anne Des Monts Airport
Ste-Anne-Des-Monts, Quebec, Canada

Public forecast

Using degrees Celsius for public forecast. Weather courtesy of forecast.io.

Closest aviation weather report (METAR) to Ste Anne Des Monts Airport

Closest report is Baie Comeau Airport, 65.8 nm (121.9 km) W. Retrieved 2020/05/27 21:00 UTC (42 minutes ago):

CYBC 272100Z AUTO 08011KT 9SM CLR 12/06 A3003 RMK SLP171

Closest aviation forecast (TAF) to Ste Anne Des Monts Airport

Closest forecast is Baie Comeau Airport, 65.8 nm (121.9 km) W. Retrieved 2020/05/27 20:00 UTC (2 hours ago):

TAF CYBC 271930Z 2720/2808 09012KT P6SM SCT040 SCT240 FM272100 04008KT P6SM SCT040 TEMPO 2721/2801 P6SM -SHRA BKN040 FM280100 VRB03KT P6SM SCT004 BKN080 FM280600 VRB03KT 4SM BR BKN004 PROB30 2806/2808 3/4SM BR OVC002 RMK FCST BASED ON AUTO OBS NXT FCST BY 280200Z